createdAt,value
2019-03-03T00:00:14.250Z,1007.17
2019-03-03T00:01:14.199Z,1007.23
2019-03-03T00:02:14.190Z,1007.23
2019-03-03T00:03:14.181Z,1007.21
2019-03-03T00:04:14.172Z,1007.18
2019-03-03T00:05:14.185Z,1007.17
2019-03-03T00:06:14.142Z,1007.16
2019-03-03T00:07:14.133Z,1007.19
2019-03-03T00:08:14.125Z,1007.17
2019-03-03T00:09:14.119Z,1007.12
2019-03-03T00:10:14.110Z,1007.14
2019-03-03T00:11:14.131Z,1007.03
2019-03-03T00:12:14.071Z,1007.06
2019-03-03T00:13:14.073Z,1007.02
2019-03-03T00:14:14.063Z,1006.97
2019-03-03T00:15:14.061Z,1006.91
2019-03-03T00:16:14.061Z,1006.89
2019-03-03T00:17:14.029Z,1006.91
2019-03-03T00:18:14.011Z,1006.87
2019-03-03T00:19:14.005Z,1006.93
2019-03-03T00:20:13.995Z,1006.86
2019-03-03T00:21:14.011Z,1006.87
2019-03-03T00:22:13.978Z,1006.81
2019-03-03T00:23:13.969Z,1006.81
2019-03-03T00:24:13.980Z,1006.86
2019-03-03T00:25:13.939Z,1006.81
2019-03-03T00:26:13.930Z,1006.83
2019-03-03T00:27:13.957Z,1006.80
2019-03-03T00:28:13.915Z,1006.76
2019-03-03T00:29:13.903Z,1006.76
2019-03-03T00:30:13.883Z,1006.75
2019-03-03T00:31:13.885Z,1006.76
2019-03-03T00:32:13.894Z,1006.76
2019-03-03T00:33:13.862Z,1006.80
2019-03-03T00:34:13.851Z,1006.75
2019-03-03T00:35:13.830Z,1006.74
2019-03-03T00:36:13.825Z,1006.71
2019-03-03T00:37:13.843Z,1006.75
2019-03-03T00:38:13.867Z,1006.74
2019-03-03T00:39:13.794Z,1006.76
2019-03-03T00:40:13.791Z,1006.73
2019-03-03T00:41:13.771Z,1006.69
2019-03-03T00:42:13.780Z,1006.72
2019-03-03T00:43:13.758Z,1006.67
2019-03-03T00:44:13.751Z,1006.62
2019-03-03T00:45:13.723Z,1006.67
2019-03-03T00:46:13.727Z,1006.66
2019-03-03T00:47:13.781Z,1006.62
2019-03-03T00:48:13.693Z,1006.70
2019-03-03T00:49:13.681Z,1006.68
2019-03-03T00:50:13.681Z,1006.71
2019-03-03T00:51:13.663Z,1006.67
2019-03-03T00:52:14.279Z,1006.58
2019-03-03T00:53:13.814Z,1006.61
2019-03-03T00:54:13.630Z,1006.59
2019-03-03T00:55:13.617Z,1006.60
2019-03-03T00:56:13.607Z,1006.54
2019-03-03T00:57:13.598Z,1006.56
2019-03-03T00:58:13.602Z,1006.56
2019-03-03T00:59:13.578Z,1006.60
2019-03-03T01:00:13.570Z,1006.60
2019-03-03T01:01:13.568Z,1006.56
2019-03-03T01:02:13.540Z,1006.62
2019-03-03T01:03:13.580Z,1006.58
2019-03-03T01:04:13.537Z,1006.61
2019-03-03T01:05:13.518Z,1006.64
2019-03-03T01:06:13.507Z,1006.64
2019-03-03T01:07:13.516Z,1006.63
2019-03-03T01:08:13.567Z,1006.67
2019-03-03T01:09:13.477Z,1006.59
2019-03-03T01:10:13.479Z,1006.55
2019-03-03T01:11:13.443Z,1006.55
2019-03-03T01:12:13.492Z,1006.63
2019-03-03T01:13:13.453Z,1006.67
2019-03-03T01:14:13.410Z,1006.65
2019-03-03T01:15:13.415Z,1006.60
2019-03-03T01:16:13.389Z,1006.58
2019-03-03T01:17:13.380Z,1006.63
2019-03-03T01:18:13.382Z,1006.56
2019-03-03T01:19:13.377Z,1006.54
2019-03-03T01:20:13.357Z,1006.56
2019-03-03T01:21:13.392Z,1006.56
2019-03-03T01:22:13.325Z,1006.54
2019-03-03T01:23:13.323Z,1006.57
2019-03-03T01:24:13.322Z,1006.53
2019-03-03T01:25:13.294Z,1006.50
2019-03-03T01:26:22.457Z,1006.50
2019-03-03T01:27:22.502Z,1006.54
2019-03-03T01:28:13.264Z,1006.50
2019-03-03T01:29:13.299Z,1006.48
2019-03-03T01:30:13.279Z,1006.50
2019-03-03T01:31:13.228Z,1006.49
2019-03-03T01:32:13.224Z,1006.49
2019-03-03T01:33:13.209Z,1006.44
2019-03-03T01:34:13.238Z,1006.39
2019-03-03T01:35:13.196Z,1006.39
2019-03-03T01:36:13.205Z,1006.41
2019-03-03T01:37:13.172Z,1006.36
2019-03-03T01:38:13.168Z,1006.37
2019-03-03T01:39:13.143Z,1006.38
2019-03-03T01:40:13.209Z,1006.35
2019-03-03T01:41:13.140Z,1006.40
2019-03-03T01:42:13.134Z,1006.36
2019-03-03T01:43:13.103Z,1006.35
2019-03-03T01:44:13.102Z,1006.34
2019-03-03T01:45:13.107Z,1006.33
2019-03-03T01:46:13.074Z,1006.27
2019-03-03T01:47:13.075Z,1006.31
2019-03-03T01:48:13.080Z,1006.28
2019-03-03T01:49:13.034Z,1006.27
2019-03-03T01:50:13.048Z,1006.23
2019-03-03T01:51:13.024Z,1006.25
2019-03-03T01:52:13.007Z,1006.26
2019-03-03T01:53:13.006Z,1006.22
2019-03-03T01:54:12.999Z,1006.14
2019-03-03T01:55:13.015Z,1006.17
2019-03-03T01:56:12.969Z,1006.14
2019-03-03T01:57:12.962Z,1006.12
2019-03-03T01:58:12.956Z,1006.10
2019-03-03T01:59:12.939Z,1006.11
2019-03-03T02:00:12.962Z,1006.05
2019-03-03T02:01:12.915Z,1005.97
2019-03-03T02:02:12.908Z,1006.02
2019-03-03T02:03:12.888Z,1006.01
2019-03-03T02:04:12.890Z,1005.94
2019-03-03T02:05:12.896Z,1005.99
2019-03-03T02:06:12.901Z,1005.98
2019-03-03T02:07:12.850Z,1006.00
2019-03-03T02:08:12.852Z,1006.03
2019-03-03T02:09:12.830Z,1006.00
2019-03-03T02:10:12.824Z,1005.99
2019-03-03T02:11:12.875Z,1006.00
2019-03-03T02:12:12.839Z,1005.98
2019-03-03T02:13:12.793Z,1006.02
2019-03-03T02:14:12.792Z,1005.95
2019-03-03T02:15:12.762Z,1006.00
2019-03-03T02:16:12.772Z,1005.93
2019-03-03T02:17:12.745Z,1005.98
2019-03-03T02:18:12.738Z,1005.89
2019-03-03T02:19:12.722Z,1005.85
2019-03-03T02:20:12.727Z,1005.87
2019-03-03T02:21:12.740Z,1005.88
2019-03-03T02:22:12.698Z,1005.80
2019-03-03T02:23:12.682Z,1005.88
2019-03-03T02:24:12.665Z,1005.88
2019-03-03T02:25:12.660Z,1005.88
2019-03-03T02:26:12.674Z,1005.84
2019-03-03T02:27:12.648Z,1005.85
2019-03-03T02:28:12.637Z,1005.83
2019-03-03T02:29:12.610Z,1005.82
2019-03-03T02:30:12.605Z,1005.85
2019-03-03T02:31:12.598Z,1005.84
2019-03-03T02:32:12.607Z,1005.87
2019-03-03T02:33:12.587Z,1005.84
2019-03-03T02:34:12.562Z,1005.90
2019-03-03T02:35:12.553Z,1005.81
2019-03-03T02:36:12.539Z,1005.80
2019-03-03T02:37:12.546Z,1005.76
2019-03-03T02:38:12.519Z,1005.80
2019-03-03T02:39:12.514Z,1005.73
2019-03-03T02:40:12.500Z,1005.72
2019-03-03T02:41:12.485Z,1005.71
2019-03-03T02:42:12.495Z,1005.66
2019-03-03T02:43:12.472Z,1005.75
2019-03-03T02:44:12.471Z,1005.66
2019-03-03T02:45:12.453Z,1005.66
2019-03-03T02:46:12.433Z,1005.64
2019-03-03T02:47:12.440Z,1005.65
2019-03-03T02:48:12.417Z,1005.62
2019-03-03T02:49:12.421Z,1005.62
2019-03-03T02:50:12.400Z,1005.64
2019-03-03T02:51:12.391Z,1005.62
2019-03-03T02:52:12.410Z,1005.61
2019-03-03T02:53:12.362Z,1005.64
2019-03-03T02:54:12.355Z,1005.60
2019-03-03T02:55:12.340Z,1005.61
2019-03-03T02:56:12.330Z,1005.59
2019-03-03T02:57:12.326Z,1005.63
2019-03-03T02:58:12.325Z,1005.62
2019-03-03T02:59:12.298Z,1005.64
2019-03-03T03:00:12.289Z,1005.60
2019-03-03T03:01:12.274Z,1005.65
2019-03-03T03:02:12.269Z,1005.65
2019-03-03T03:03:12.284Z,1005.70
2019-03-03T03:04:12.252Z,1005.63
2019-03-03T03:05:12.246Z,1005.66
2019-03-03T03:06:12.228Z,1005.67
2019-03-03T03:07:12.211Z,1005.63
2019-03-03T03:08:12.218Z,1005.63
2019-03-03T03:09:12.184Z,1005.61
2019-03-03T03:10:12.188Z,1005.56
2019-03-03T03:11:12.172Z,1005.53
2019-03-03T03:12:12.173Z,1005.53
2019-03-03T03:13:12.196Z,1005.53
2019-03-03T03:14:12.150Z,1005.52
2019-03-03T03:15:12.122Z,1005.46
2019-03-03T03:16:12.111Z,1005.49
2019-03-03T03:17:12.105Z,1005.46
2019-03-03T03:18:12.120Z,1005.54
2019-03-03T03:19:12.086Z,1005.48
2019-03-03T03:20:12.066Z,1005.48
2019-03-03T03:21:12.062Z,1005.37
2019-03-03T03:22:12.044Z,1005.44
2019-03-03T03:23:12.049Z,1005.41
2019-03-03T03:24:12.068Z,1005.36
2019-03-03T03:25:12.034Z,1005.32
2019-03-03T03:26:12.000Z,1005.35
2019-03-03T03:27:11.998Z,1005.33
2019-03-03T03:28:11.987Z,1005.31
2019-03-03T03:29:11.991Z,1005.29
2019-03-03T03:30:11.972Z,1005.21
2019-03-03T03:31:11.970Z,1005.21
2019-03-03T03:32:11.942Z,1005.18
2019-03-03T03:33:11.935Z,1005.14
2019-03-03T03:34:11.951Z,1005.14
2019-03-03T03:35:11.926Z,1005.11
2019-03-03T03:36:11.908Z,1005.13
2019-03-03T03:37:11.904Z,1005.08
2019-03-03T03:38:11.874Z,1005.08
2019-03-03T03:39:11.886Z,1005.08
2019-03-03T03:40:11.858Z,1005.05
2019-03-03T03:41:11.855Z,1005.01
2019-03-03T03:42:11.854Z,1004.99
2019-03-03T03:43:11.841Z,1005.01
2019-03-03T03:44:11.858Z,1005.02
2019-03-03T03:45:11.805Z,1005.00
2019-03-03T03:46:11.797Z,1004.93
2019-03-03T03:47:11.793Z,1004.94
2019-03-03T03:48:11.782Z,1004.89
2019-03-03T03:49:11.801Z,1004.88
2019-03-03T03:50:11.793Z,1004.88
2019-03-03T03:51:11.739Z,1004.82
2019-03-03T03:52:11.755Z,1004.82
2019-03-03T03:53:11.724Z,1004.77
2019-03-03T03:54:11.735Z,1004.75
2019-03-03T03:55:11.721Z,1004.78
2019-03-03T03:56:11.689Z,1004.72
2019-03-03T03:57:11.672Z,1004.72
2019-03-03T03:58:11.673Z,1004.77
2019-03-03T03:59:11.667Z,1004.85
2019-03-03T04:00:11.737Z,1004.82
2019-03-03T04:01:11.636Z,1004.75
2019-03-03T04:02:11.624Z,1004.74
2019-03-03T04:03:11.612Z,1004.74
2019-03-03T04:04:11.607Z,1004.76
2019-03-03T04:05:11.616Z,1004.71
2019-03-03T04:06:11.591Z,1004.76
2019-03-03T04:07:11.568Z,1004.76
2019-03-03T04:08:11.560Z,1004.75
2019-03-03T04:09:11.547Z,1004.68
2019-03-03T04:10:11.559Z,1004.66
2019-03-03T04:11:12.521Z,1004.68
2019-03-03T04:12:11.534Z,1004.61
2019-03-03T04:13:11.502Z,1004.60
2019-03-03T04:14:11.520Z,1004.51
2019-03-03T04:15:11.485Z,1004.57
2019-03-03T04:16:11.494Z,1004.50
2019-03-03T04:17:11.468Z,1004.49
2019-03-03T04:18:11.475Z,1004.42
2019-03-03T04:19:11.445Z,1004.47
2019-03-03T04:20:11.434Z,1004.48
2019-03-03T04:21:11.450Z,1004.41
2019-03-03T04:22:11.413Z,1004.43
2019-03-03T04:23:11.410Z,1004.42
2019-03-03T04:24:11.387Z,1004.35
2019-03-03T04:25:11.375Z,1004.35
2019-03-03T04:26:11.393Z,1004.33
2019-03-03T04:27:11.365Z,1004.33
2019-03-03T04:28:11.361Z,1004.33
2019-03-03T04:29:11.351Z,1004.31
2019-03-03T04:30:11.324Z,1004.27
2019-03-03T04:31:11.633Z,1004.31
2019-03-03T04:32:11.305Z,1004.35
2019-03-03T04:33:11.302Z,1004.34
2019-03-03T04:34:11.279Z,1004.33
2019-03-03T04:35:11.300Z,1004.36
2019-03-03T04:36:11.268Z,1004.38
2019-03-03T04:37:11.272Z,1004.34
2019-03-03T04:38:11.242Z,1004.37
2019-03-03T04:39:11.242Z,1004.35
2019-03-03T04:40:11.249Z,1004.31
2019-03-03T04:41:11.206Z,1004.33
2019-03-03T04:42:11.240Z,1004.34
2019-03-03T04:43:11.194Z,1004.29
2019-03-03T04:44:11.183Z,1004.37
2019-03-03T04:45:11.180Z,1004.33
2019-03-03T04:46:11.163Z,1004.31
2019-03-03T04:47:11.186Z,1004.32
2019-03-03T04:48:11.131Z,1004.29
2019-03-03T04:49:11.128Z,1004.31
2019-03-03T04:50:11.114Z,1004.26
2019-03-03T04:51:11.104Z,1004.21
2019-03-03T04:52:11.116Z,1004.22
2019-03-03T04:53:11.074Z,1004.21
2019-03-03T04:54:11.065Z,1004.18
2019-03-03T04:55:11.054Z,1004.18
2019-03-03T04:56:11.047Z,1004.18
2019-03-03T04:57:11.067Z,1004.16
2019-03-03T04:58:11.051Z,1004.12
2019-03-03T04:59:11.022Z,1004.15
2019-03-03T05:00:11.003Z,1004.17
2019-03-03T05:01:10.999Z,1004.09
2019-03-03T05:02:10.986Z,1004.15
2019-03-03T05:03:11.001Z,1004.14
2019-03-03T05:04:10.965Z,1004.25
2019-03-03T05:05:10.956Z,1004.22
2019-03-03T05:06:10.939Z,1004.25
2019-03-03T05:07:10.942Z,1004.27
2019-03-03T05:08:10.948Z,1004.22
2019-03-03T05:09:10.925Z,1004.22
2019-03-03T05:10:10.907Z,1004.15
2019-03-03T05:11:10.886Z,1004.16
2019-03-03T05:12:10.877Z,1004.16
2019-03-03T05:13:10.895Z,1004.18
2019-03-03T05:14:10.883Z,1004.17
2019-03-03T05:15:10.863Z,1004.16
2019-03-03T05:16:10.840Z,1004.17
2019-03-03T05:17:10.827Z,1004.16
2019-03-03T05:18:11.145Z,1004.17
2019-03-03T05:19:10.814Z,1004.15
2019-03-03T05:20:10.808Z,1004.16
2019-03-03T05:21:10.800Z,1004.07
2019-03-03T05:22:10.783Z,1004.05
2019-03-03T05:23:10.783Z,1004.00
2019-03-03T05:24:10.759Z,1004.00
2019-03-03T05:25:10.741Z,1003.97
2019-03-03T05:26:10.738Z,1003.95
2019-03-03T05:27:10.713Z,1003.96
2019-03-03T05:28:10.757Z,1004.02
2019-03-03T05:29:10.696Z,1003.99
2019-03-03T05:30:10.690Z,1004.07
2019-03-03T05:31:10.681Z,1004.02
2019-03-03T05:32:10.682Z,1003.99
2019-03-03T05:33:10.692Z,1003.99
2019-03-03T05:34:10.649Z,1004.05
2019-03-03T05:35:10.631Z,1003.92
2019-03-03T05:36:10.623Z,1003.87
2019-03-03T05:37:10.621Z,1003.95
2019-03-03T05:38:10.621Z,1003.92
2019-03-03T05:39:10.607Z,1003.93
2019-03-03T05:40:10.578Z,1003.93
2019-03-03T05:41:10.571Z,1003.87
2019-03-03T05:42:10.558Z,1003.88
2019-03-03T05:43:10.570Z,1003.85
2019-03-03T05:44:10.567Z,1003.84
2019-03-03T05:45:10.537Z,1003.83
2019-03-03T05:46:10.513Z,1003.78
2019-03-03T05:47:10.510Z,1003.78
2019-03-03T05:48:10.497Z,1003.79
2019-03-03T05:49:10.502Z,1003.68
2019-03-03T05:50:10.476Z,1003.72
2019-03-03T05:51:10.466Z,1003.76
2019-03-03T05:52:10.450Z,1003.73
2019-03-03T05:53:10.449Z,1003.69
2019-03-03T05:54:10.466Z,1003.64
2019-03-03T05:55:10.434Z,1003.69
2019-03-03T05:56:10.411Z,1003.69
2019-03-03T05:57:10.399Z,1003.72
2019-03-03T05:58:10.387Z,1003.72
2019-03-03T05:59:10.411Z,1003.72
2019-03-03T06:00:10.380Z,1003.70
2019-03-03T06:01:10.377Z,1003.78
2019-03-03T06:02:10.352Z,1003.70
2019-03-03T06:03:10.343Z,1003.64
2019-03-03T06:04:10.321Z,1003.57
2019-03-03T06:05:10.337Z,1003.57
2019-03-03T06:06:10.311Z,1003.57
2019-03-03T06:07:10.313Z,1003.56
2019-03-03T06:08:10.285Z,1003.56
2019-03-03T06:09:10.274Z,1003.55
2019-03-03T06:10:10.300Z,1003.61
2019-03-03T06:11:10.254Z,1003.58
2019-03-03T06:12:10.249Z,1003.57
2019-03-03T06:13:10.246Z,1003.55
2019-03-03T06:14:10.227Z,1003.53
2019-03-03T06:15:10.233Z,1003.48
2019-03-03T06:16:10.201Z,1003.52
2019-03-03T06:17:10.187Z,1003.52
2019-03-03T06:18:10.187Z,1003.48
2019-03-03T06:19:10.190Z,1003.51
2019-03-03T06:20:10.194Z,1003.48
2019-03-03T06:21:10.145Z,1003.48
2019-03-03T06:22:10.145Z,1003.49
2019-03-03T06:23:10.122Z,1003.47
2019-03-03T06:24:10.121Z,1003.44
2019-03-03T06:25:10.154Z,1003.45
2019-03-03T06:26:10.085Z,1003.51
2019-03-03T06:27:10.083Z,1003.47
2019-03-03T06:28:10.087Z,1003.48
2019-03-03T06:29:10.060Z,1003.44
2019-03-03T06:30:10.069Z,1003.43
2019-03-03T06:31:10.065Z,1003.41
2019-03-03T06:32:10.021Z,1003.45
2019-03-03T06:33:10.013Z,1003.44
2019-03-03T06:34:10.012Z,1003.42
2019-03-03T06:35:10.003Z,1003.35
2019-03-03T06:36:10.007Z,1003.30
2019-03-03T06:37:09.979Z,1003.35
2019-03-03T06:38:09.963Z,1003.33
2019-03-03T06:39:09.982Z,1003.30
2019-03-03T06:40:09.943Z,1003.30
2019-03-03T06:41:09.958Z,1003.27
2019-03-03T06:42:09.925Z,1003.23
2019-03-03T06:43:09.912Z,1003.17
2019-03-03T06:44:09.905Z,1003.16
2019-03-03T06:45:09.901Z,1003.18
2019-03-03T06:46:09.901Z,1003.15
2019-03-03T06:47:09.871Z,1003.14
2019-03-03T06:48:09.863Z,1003.12
2019-03-03T06:49:09.847Z,1003.12
2019-03-03T06:50:09.829Z,1003.08
2019-03-03T06:51:09.843Z,1003.14
2019-03-03T06:52:09.815Z,1003.11
2019-03-03T06:53:09.801Z,1003.15
2019-03-03T06:54:09.807Z,1003.10
2019-03-03T06:55:09.784Z,1003.15
2019-03-03T06:56:09.801Z,1003.11
2019-03-03T06:57:09.763Z,1003.16
2019-03-03T06:58:09.755Z,1003.15
2019-03-03T06:59:09.751Z,1003.14
2019-03-03T07:00:10.253Z,1003.05
2019-03-03T07:01:09.717Z,1003.06
2019-03-03T07:02:09.743Z,1003.09
2019-03-03T07:03:09.696Z,1003.13
2019-03-03T07:04:09.695Z,1003.07
2019-03-03T07:05:09.673Z,1003.05
2019-03-03T07:06:09.691Z,1002.99
2019-03-03T07:07:09.670Z,1003.03
2019-03-03T07:08:09.660Z,1003.00
2019-03-03T07:09:09.641Z,1002.96
2019-03-03T07:10:09.625Z,1002.98
2019-03-03T07:11:10.146Z,1002.99
2019-03-03T07:12:09.642Z,1002.99
2019-03-03T07:13:09.593Z,1003.02
2019-03-03T07:14:09.603Z,1002.94
2019-03-03T07:15:09.569Z,1003.00
2019-03-03T07:16:09.585Z,1002.96
2019-03-03T07:17:09.541Z,1003.04
2019-03-03T07:18:09.551Z,1003.01
2019-03-03T07:19:09.522Z,1002.96
2019-03-03T07:20:09.512Z,1002.96
2019-03-03T07:21:09.507Z,1002.99
2019-03-03T07:22:09.511Z,1002.96
2019-03-03T07:23:09.509Z,1002.95
2019-03-03T07:24:09.468Z,1002.94
2019-03-03T07:25:09.469Z,1002.90
2019-03-03T07:26:09.446Z,1002.95
2019-03-03T07:27:09.450Z,1002.95
2019-03-03T07:28:09.453Z,1002.93
2019-03-03T07:29:09.417Z,1002.99
2019-03-03T07:30:09.405Z,1002.97
2019-03-03T07:31:09.416Z,1002.95
2019-03-03T07:32:09.388Z,1002.95
2019-03-03T07:33:09.381Z,1002.99
2019-03-03T07:34:09.375Z,1002.93
2019-03-03T07:35:09.363Z,1002.90
2019-03-03T07:36:09.336Z,1002.88
2019-03-03T07:37:09.333Z,1002.86
2019-03-03T07:38:09.333Z,1002.89
2019-03-03T07:39:09.341Z,1002.89
2019-03-03T07:40:09.311Z,1002.84
2019-03-03T07:41:09.298Z,1002.92
2019-03-03T07:42:09.279Z,1002.90
2019-03-03T07:43:09.265Z,1002.82
2019-03-03T07:44:09.285Z,1002.89
2019-03-03T07:45:09.249Z,1002.85
2019-03-03T07:46:09.248Z,1002.78
2019-03-03T07:47:09.257Z,1002.85
2019-03-03T07:48:09.219Z,1002.78
2019-03-03T07:49:09.205Z,1002.77
2019-03-03T07:50:09.330Z,1002.85
2019-03-03T07:51:09.190Z,1002.87
2019-03-03T07:52:09.182Z,1002.83
2019-03-03T07:53:09.161Z,1002.78
2019-03-03T07:54:09.159Z,1002.66
2019-03-03T07:55:09.170Z,1002.77
2019-03-03T07:56:09.137Z,1002.71
2019-03-03T07:57:09.129Z,1002.78
2019-03-03T07:58:09.119Z,1002.77
2019-03-03T07:59:09.094Z,1002.71
2019-03-03T08:00:09.110Z,1002.75
2019-03-03T08:01:09.079Z,1002.72
2019-03-03T08:02:09.153Z,1002.78
2019-03-03T08:03:09.065Z,1002.76
2019-03-03T08:04:09.057Z,1002.71
2019-03-03T08:05:09.031Z,1002.82
2019-03-03T08:06:09.036Z,1002.80
2019-03-03T08:07:09.019Z,1002.81
2019-03-03T08:08:09.012Z,1002.73
2019-03-03T08:09:08.993Z,1002.75
2019-03-03T08:10:08.975Z,1002.83
2019-03-03T08:11:08.991Z,1002.78
2019-03-03T08:12:08.964Z,1002.76
2019-03-03T08:13:09.685Z,1002.74
2019-03-03T08:14:08.938Z,1002.69
2019-03-03T08:15:08.935Z,1002.62
2019-03-03T08:16:10.830Z,1002.61
2019-03-03T08:17:08.924Z,1002.55
2019-03-03T08:18:08.922Z,1002.56
2019-03-03T08:19:08.902Z,1002.59
2019-03-03T08:20:08.877Z,1002.62
2019-03-03T08:21:08.871Z,1002.55
2019-03-03T08:22:08.878Z,1002.56
2019-03-03T08:23:08.840Z,1002.53
2019-03-03T08:24:08.835Z,1002.60
2019-03-03T08:25:08.817Z,1002.54
2019-03-03T08:26:08.817Z,1002.51
2019-03-03T08:27:08.829Z,1002.53
2019-03-03T08:28:08.790Z,1002.57
2019-03-03T08:29:08.777Z,1002.62
2019-03-03T08:30:08.775Z,1002.56
2019-03-03T08:31:08.769Z,1002.50
2019-03-03T08:32:08.752Z,1002.48
2019-03-03T08:33:08.766Z,1002.47
2019-03-03T08:34:08.726Z,1002.48
2019-03-03T08:35:08.712Z,1002.55
2019-03-03T08:36:09.653Z,1002.43
2019-03-03T08:37:08.690Z,1002.47
2019-03-03T08:38:08.699Z,1002.49
2019-03-03T08:39:08.694Z,1002.54
2019-03-03T08:40:08.666Z,1002.49
2019-03-03T08:41:08.661Z,1002.49
2019-03-03T08:42:08.658Z,1002.47
2019-03-03T08:43:08.658Z,1002.56
2019-03-03T08:44:08.622Z,1002.61
2019-03-03T08:45:08.606Z,1002.59
2019-03-03T08:46:08.604Z,1002.62
2019-03-03T08:47:08.590Z,1002.60
2019-03-03T08:48:08.594Z,1002.68
2019-03-03T08:49:08.563Z,1002.66
2019-03-03T08:50:08.581Z,1002.72
2019-03-03T08:51:08.552Z,1002.62
2019-03-03T08:52:08.530Z,1002.62
2019-03-03T08:53:08.632Z,1002.57
2019-03-03T08:54:08.526Z,1002.54
2019-03-03T08:55:08.496Z,1002.55
2019-03-03T08:56:08.510Z,1002.61
2019-03-03T08:57:08.481Z,1002.66
2019-03-03T08:58:08.464Z,1002.72
2019-03-03T08:59:08.475Z,1002.68
2019-03-03T09:00:08.449Z,1002.57
2019-03-03T09:01:08.459Z,1002.57
2019-03-03T09:02:08.439Z,1002.57
2019-03-03T09:03:08.416Z,1002.63
2019-03-03T09:04:08.433Z,1002.69
2019-03-03T09:05:08.417Z,1002.64
2019-03-03T09:06:08.408Z,1002.61
2019-03-03T09:07:08.382Z,1002.56
2019-03-03T09:08:08.367Z,1002.50
2019-03-03T09:09:08.383Z,1002.55
2019-03-03T09:10:08.352Z,1002.60
2019-03-03T09:11:08.346Z,1002.62
2019-03-03T09:12:08.322Z,1002.64
2019-03-03T09:13:08.320Z,1002.67
2019-03-03T09:14:08.331Z,1002.60
2019-03-03T09:15:08.284Z,1002.63
2019-03-03T09:16:08.285Z,1002.55
2019-03-03T09:17:08.282Z,1002.51
2019-03-03T09:18:08.262Z,1002.50
2019-03-03T09:19:08.254Z,1002.58
2019-03-03T09:20:08.259Z,1002.49
2019-03-03T09:21:08.232Z,1002.62
2019-03-03T09:22:08.222Z,1002.57
2019-03-03T09:23:08.203Z,1002.70
2019-03-03T09:24:08.207Z,1002.58
2019-03-03T09:25:08.206Z,1002.63
2019-03-03T09:26:08.174Z,1002.62
2019-03-03T09:27:08.172Z,1002.67
2019-03-03T09:28:08.164Z,1002.64
2019-03-03T09:29:08.137Z,1002.48
2019-03-03T09:30:08.154Z,1002.62
2019-03-03T09:31:08.141Z,1002.55
2019-03-03T09:32:08.107Z,1002.63
2019-03-03T09:33:08.106Z,1002.62
2019-03-03T09:34:08.102Z,1002.62
2019-03-03T09:35:08.110Z,1002.63
2019-03-03T09:36:08.074Z,1002.64
2019-03-03T09:37:08.080Z,1002.63
2019-03-03T09:38:08.050Z,1002.60
2019-03-03T09:39:08.041Z,1002.62
2019-03-03T09:40:09.676Z,1002.64
2019-03-03T09:41:08.022Z,1002.58
2019-03-03T09:42:08.012Z,1002.64
2019-03-03T09:43:08.010Z,1002.62
2019-03-03T09:44:07.974Z,1002.65
2019-03-03T09:45:07.994Z,1002.68
2019-03-03T09:46:07.976Z,1002.72
2019-03-03T09:47:07.946Z,1002.65
2019-03-03T09:48:07.948Z,1002.72
2019-03-03T09:49:07.922Z,1002.65
2019-03-03T09:50:07.915Z,1002.64
2019-03-03T09:51:07.925Z,1002.73
2019-03-03T09:52:07.913Z,1002.75
2019-03-03T09:53:07.886Z,1002.63
2019-03-03T09:54:07.906Z,1002.70
2019-03-03T09:55:07.861Z,1002.75
2019-03-03T09:56:07.872Z,1002.73
2019-03-03T09:57:07.833Z,1002.70
2019-03-03T09:58:07.827Z,1002.70
2019-03-03T09:59:07.838Z,1002.81
2019-03-03T10:00:07.818Z,1002.73
2019-03-03T10:01:07.825Z,1002.70
2019-03-03T10:02:07.794Z,1002.72
2019-03-03T10:03:07.774Z,1002.69
2019-03-03T10:04:07.762Z,1002.69
2019-03-03T10:05:07.754Z,1002.73
2019-03-03T10:06:07.788Z,1002.73
2019-03-03T10:07:07.730Z,1002.77
2019-03-03T10:08:07.726Z,1002.70
2019-03-03T10:09:07.712Z,1002.74
2019-03-03T10:10:07.696Z,1002.72
2019-03-03T10:11:07.705Z,1002.73
2019-03-03T10:12:07.724Z,1002.74
2019-03-03T10:13:07.668Z,1002.70
2019-03-03T10:14:07.668Z,1002.81
2019-03-03T10:15:07.657Z,1002.73
2019-03-03T10:16:07.636Z,1002.76
2019-03-03T10:17:07.704Z,1002.80
2019-03-03T10:18:07.615Z,1002.77
2019-03-03T10:19:07.626Z,1002.70
2019-03-03T10:20:07.612Z,1002.75
2019-03-03T10:21:07.670Z,1002.88
2019-03-03T10:22:07.648Z,1002.75
2019-03-03T10:23:07.588Z,1002.80
2019-03-03T10:24:07.550Z,1002.85
2019-03-03T10:25:07.544Z,1002.77
2019-03-03T10:26:07.530Z,1002.78
2019-03-03T10:27:07.560Z,1002.86
2019-03-03T10:28:07.531Z,1002.86
2019-03-03T10:29:07.509Z,1002.82
2019-03-03T10:30:07.563Z,1002.85
2019-03-03T10:31:07.462Z,1002.80
2019-03-03T10:32:07.490Z,1002.75
2019-03-03T10:33:07.541Z,1002.81
2019-03-03T10:34:07.456Z,1002.82
2019-03-03T10:35:07.437Z,1002.89
2019-03-03T10:36:07.419Z,1002.92
2019-03-03T10:37:07.419Z,1002.77
2019-03-03T10:38:07.436Z,1002.79
2019-03-03T10:39:07.392Z,1002.81
2019-03-03T10:40:07.390Z,1002.78
2019-03-03T10:41:07.362Z,1002.75
2019-03-03T10:42:07.363Z,1002.81
2019-03-03T10:43:07.427Z,1002.88
2019-03-03T10:44:07.366Z,1002.85
2019-03-03T10:45:07.343Z,1002.83
2019-03-03T10:46:07.337Z,1002.89
2019-03-03T10:47:07.300Z,1002.79
2019-03-03T10:48:07.327Z,1002.84
2019-03-03T10:49:07.284Z,1002.83
2019-03-03T10:50:07.319Z,1002.87
2019-03-03T10:51:07.258Z,1002.82
2019-03-03T10:52:07.260Z,1002.77
2019-03-03T10:53:07.240Z,1002.76
2019-03-03T10:54:07.260Z,1002.82
2019-03-03T10:55:07.214Z,1002.77
2019-03-03T10:56:07.213Z,1002.85
2019-03-03T10:57:07.206Z,1002.80
2019-03-03T10:58:07.219Z,1002.78
2019-03-03T10:59:07.211Z,1002.76
2019-03-03T11:00:07.180Z,1002.70
2019-03-03T11:01:07.148Z,1002.74
2019-03-03T11:02:07.149Z,1002.70
2019-03-03T11:03:07.137Z,1002.71
2019-03-03T11:04:07.155Z,1002.72
2019-03-03T11:05:07.135Z,1002.84
2019-03-03T11:06:07.113Z,1002.75
2019-03-03T11:07:07.100Z,1002.75
2019-03-03T11:08:07.099Z,1002.76
2019-03-03T11:09:07.090Z,1002.76
2019-03-03T11:10:07.059Z,1002.67
2019-03-03T11:11:07.064Z,1002.77
2019-03-03T11:15:18.534Z,1002.74
2019-03-03T11:16:14.081Z,1002.72
2019-03-03T11:17:13.087Z,1002.69
2019-03-03T11:18:14.080Z,1002.69
2019-03-03T11:19:13.051Z,1002.76
2019-03-03T11:20:13.062Z,1002.71
2019-03-03T11:21:13.033Z,1002.71
2019-03-03T11:22:13.036Z,1002.73
2019-03-03T11:23:13.030Z,1002.70
2019-03-03T11:24:13.004Z,1002.72
2019-03-03T11:25:13.071Z,1002.71
2019-03-03T11:26:12.979Z,1002.62
2019-03-03T11:27:12.991Z,1002.69
2019-03-03T11:28:12.957Z,1002.72
2019-03-03T11:29:12.962Z,1002.66
2019-03-03T11:30:12.941Z,1002.71
2019-03-03T11:31:12.947Z,1002.62
2019-03-03T11:32:12.918Z,1002.71
2019-03-03T11:33:13.016Z,1002.73
2019-03-03T11:34:12.895Z,1002.67
2019-03-03T11:35:12.884Z,1002.63
2019-03-03T11:36:13.005Z,1002.68
2019-03-03T11:37:14.130Z,1002.68
2019-03-03T11:38:12.846Z,1002.67
2019-03-03T11:39:12.831Z,1002.67
2019-03-03T11:40:12.819Z,1002.69
2019-03-03T11:41:12.836Z,1002.63
2019-03-03T11:42:12.808Z,1002.63
2019-03-03T11:43:12.795Z,1002.64
2019-03-03T11:44:12.802Z,1002.64
2019-03-03T11:45:12.773Z,1002.62
2019-03-03T11:46:12.793Z,1002.61
2019-03-03T11:47:12.748Z,1002.60
2019-03-03T11:48:12.737Z,1002.63
2019-03-03T11:49:12.727Z,1002.68
2019-03-03T11:50:12.714Z,1002.63
2019-03-03T11:51:12.741Z,1002.55
2019-03-03T11:52:12.703Z,1002.61
2019-03-03T11:53:12.689Z,1002.56
2019-03-03T11:54:12.669Z,1002.60
2019-03-03T11:55:12.666Z,1002.56
2019-03-03T11:56:12.675Z,1002.58
2019-03-03T11:57:12.680Z,1002.54
2019-03-03T11:58:12.653Z,1002.59
2019-03-03T11:59:12.665Z,1002.53
2019-03-03T12:00:12.653Z,1002.51
2019-03-03T12:01:12.619Z,1002.48
2019-03-03T12:02:12.609Z,1002.53
2019-03-03T12:03:12.634Z,1002.48
2019-03-03T12:04:12.561Z,1002.54
2019-03-03T12:05:12.556Z,1002.51
2019-03-03T12:06:12.548Z,1002.52
2019-03-03T12:07:12.556Z,1002.56
2019-03-03T12:08:12.557Z,1002.53